CheckWX is a tool to help pilots better visualize weather data.  It is not intended as a substitute for an official pre-flight weather briefing.

16:40:08 UTC

EDJA TAF
Memmingen Allgau Airport
Memmingen, Germany
TAF EDJA 290800Z 2909/2918 05010KT 9999 FEW035

May-29@
09:00 UTC

May-29 @ 09:00 UTC

May-29@
18:00 UTC

May-29 @ 18:00 UTC

TAF EDJA 290800Z 2909/2918 05010KT 9999 FEW035
Wind
  • 050° at 10 KTS
Cloud Levels
  • Few at 3,500' AGL